Valley Peak, Santa Cruz Island Reserve, California Weather observations

Data are for 10 minute period ending at time listed.
 Day   Time   Solar   Ave.   Ave.  Ave.  Vector  Max.   Baro.   Total    
  of    of     Rad.   Air    Rel.  Wind   Wind   Wind  Press.  Precip.   
Year   Day            Temp.  Hum.  Speed  Dir.   Gust                    
2015   (PST)  Kw/m2    F      %     mph   deg.    mph    mb.     in.     
-------------------------------------------------------------------------
  30    7:20   0.00   55.8    62    8.9    98    11.8   964.9    0.00 
  30    7:30   0.01   55.7    63    7.3    95     8.7   964.9    0.00 
  30    7:40   0.02   55.7    64    5.7   100     7.8   964.9    0.00 
  30    7:50   0.03   56.0    63    4.2   100     5.2   964.9    0.00 
  30    8:00   0.06   56.6    62    5.0    94     6.1   964.9    0.00 
  30    8:10   0.07   57.2    61    4.2   117     5.2   965.0    0.00 
  30    8:20   0.08   58.2    61    4.8   107     6.9   965.0    0.00 
  30    8:30   0.14   59.1    60    3.6   112     5.6   965.0    0.00 
  30    8:40   0.20   60.6    60    3.1   104     4.5   965.0    0.00 
  30    8:50   0.40   62.2    57    2.7   121     5.1   965.0    0.00 
  30    9:00   0.43   63.8    55    2.0   119     4.2   964.9    0.00 
  30    9:10   0.29   63.8    55    1.1   151     4.0   964.8    0.00 
  30    9:20   0.42   63.3    61    1.6    68     3.2   964.7    0.00 
  30    9:30   0.45   63.6    60    0.8    19     3.4   964.5    0.00 
  30    9:40   0.50   63.7    62    1.5    54     3.2   964.4    0.00 
  30    9:50   0.41   64.3    64    1.3    51     2.8   964.3    0.00 
  30   10:00   0.28   63.4    66    1.0    48     3.7   964.3    0.00 
  30   10:10   0.25   63.3    65    1.6   206     4.0   964.3    0.00 
  30   10:20   0.26   62.9    70    1.0    30     2.7   964.3    0.00 
  30   10:30   0.26   62.5    72    1.0    50     3.7   964.4    0.00 
  30   10:40   0.25   62.4    72    1.2   257     5.7   964.4    0.00 
  30   10:50   0.23   62.6    62    2.9   200     5.5   964.3    0.00 
  30   11:00   0.25   62.9    60    3.5   237     5.6   964.2    0.00 
  30   11:10   0.27   63.0    61    3.1   246     6.2   964.2    0.00 
  30   11:20   0.28   62.7    59    4.5   248     7.0   964.0    0.00 
  30   11:30   0.37   63.1    60    4.0   250     7.0   963.8    0.00 
  30   11:40   0.75   65.5    55    4.6   244     9.7   963.6    0.00 
  30   11:50   0.60   66.7    53    4.2   243     8.8   963.5    0.00 
  30   12:00   0.43   66.1    54    3.9   254     7.7   963.3    0.00 
  30   12:10   0.38   65.6    59    1.1   281     5.8   963.1    0.00 
  30   12:20   0.39   66.3    58    2.4   239     6.0   962.9    0.00 
  30   12:30   0.27   65.8    54    3.6   228     7.5   962.7    0.00 
  30   12:40   0.25   64.9    62    2.8   259     6.6   962.7    0.00 
  30   12:50   0.32   63.8    59    5.6   250     9.1   962.6    0.00 
  30   13:00   0.38   64.5    56    5.5   244     9.2   962.4    0.00 
  30   13:10   0.72   65.8    52    6.0   244    11.5   962.3    0.00 
  30   13:20   0.85   68.5    46    8.2   238    12.9   962.0    0.00 
  30   13:30   0.40   67.8    49    4.9   248     9.3   961.8    0.00 
  30   13:40   0.37   66.0    60    2.6   290     7.4   961.7    0.00 
  30   13:50   0.30   64.9    62    2.7   319     8.9   961.6    0.00 
  30   14:00   0.24   63.5    61    3.3   328     7.9   961.5    0.00 
  30   14:10   0.17   63.0    58    3.6   291     6.6   961.4    0.00 
  30   14:20   0.17   62.6    58    4.1   274     8.6   961.3    0.00 
  30   14:30   0.22   61.4    73    5.3    27     8.6   961.3    0.00 
  30   14:40   0.19   59.8    77    9.7    29    12.4   961.2    0.00 
  30   14:50   0.29   59.5    78    7.5    34    11.5   961.2    0.00 
  30   15:00   0.22   61.8    68    5.3    30     8.0   961.2    0.00 
  30   15:10   0.35   62.3    69    6.4    30     8.1   961.2    0.00 
  30   15:20   0.39   66.9    61    2.1    52     5.4   961.2    0.00 
  30   15:30   0.36   68.9    61    5.8    41    10.4   961.1    0.00 
  30   15:40   0.34   66.7    66    4.9    32     8.6   961.0    0.00 
  30   15:50   0.32   65.7    68    4.4    33     6.6   961.0    0.00 
  30   16:00   0.29   65.2    68    1.8    15     3.6   961.0    0.00 
  30   16:10   0.26   63.7    71    1.6    11     3.0   961.1    0.00 
  30   16:20   0.20   63.9    70    1.3     8     3.1   961.2    0.00 
  30   16:30   0.16   66.5    65    1.2     7     2.6   961.2    0.00 
  30   16:40   0.12   65.4    66    1.9   293     3.6   961.2    0.00 
  30   16:50   0.09   63.3    70    2.5   313     4.5   961.3    0.00 
  30   17:00   0.06   61.1    76    2.1    19     3.6   961.3    0.00 
  30   17:10   0.03   62.0    71    0.8    18     3.0   961.3    0.00 
  30   17:20   0.02   60.2    73    1.7    22     3.1   961.3    0.00 
  30   17:30   0.01   57.7    78    2.0    13     3.6   961.4    0.00 
  30   17:40   0.00   55.0    87    2.9   350     4.3   961.5    0.00 
  30   17:50   0.00   54.1    89    4.2    28     5.5   961.5    0.00 
  30   18:00   0.00   53.7    90    1.9    43     3.8   961.6    0.00 
  30   18:10   0.00   53.3    91    1.6    40     2.9   961.7    0.00 
  30   18:20   0.00   53.0    92    1.4    13     3.4   961.7    0.00 
  30   18:30   0.00   53.8    88    2.4     0     3.9   961.8    0.00 
  30   18:40   0.00   54.1    87    3.3   357     5.3   961.8    0.00 
  30   18:50   0.00   54.1    88    4.1    21     5.3   961.8    0.00 
  30   19:00   0.00   54.2    87    3.4   360     5.0   961.9    0.00 
  30   19:10   0.00   54.9    82    3.3   335     4.7   961.9    0.00 
  30   19:20   0.00   54.5    85    3.1    20     4.6   961.9    0.00 
  30   19:30   0.00   55.0    79    5.3   324    11.6   962.0    0.00 
  30   19:40   0.00   55.3    77    7.6   330    10.9   962.0    0.00 
  30   19:50   0.00   54.9    80    8.0   345     9.3   962.0    0.00 
  30   20:00   0.00   54.8    80    8.1   353    11.1   962.0    0.00 
  30   20:10   0.00   54.4    82    9.5   360    12.6   962.0    0.00 
  30   20:20   0.00   54.1    83    9.5   360    13.3   962.0    0.00 
  30   20:30   0.00   54.3    82    8.8   351    14.8   962.0    0.00 
  30   20:40   0.00   54.5    81    7.2   347    10.5   962.1    0.00 
  30   20:50   0.00   54.4    81    6.2   346     9.3   962.1    0.00 
  30   21:00   0.00   54.9    79    7.3   322    10.2   962.2    0.00 
  30   21:10   0.00   55.3    79    8.0   342    12.9   962.2    0.00 
  30   21:20   0.00   54.8    81    9.9   357    14.2   962.1    0.00 
  30   21:30   0.00   54.4    83   11.6    10    13.8   962.0    0.00 
  30   21:40   0.00   53.7    85   10.7     9    12.6   962.1    0.00 
  30   21:50   0.00   54.0    84    9.6   354    12.0   962.1    0.00 
  30   22:00   0.00   55.5    78   11.1   341    14.5   962.1    0.00 
  30   22:10   0.00   56.1    76   10.8   343    13.0   962.1    0.00 
  30   22:20   0.00   56.5    74   11.5   347    13.8   961.9    0.00 
  30   22:30   0.00   56.1    75   10.9   354    14.6   961.9    0.00 
  30   22:40   0.00   55.9    76   10.7     2    14.2   961.8    0.00 
  30   22:50   0.00   55.4    78    9.8     6    13.0   961.8    0.00 
  30   23:00   0.00   55.2    78    8.7    10    11.2   961.9    0.00 
  30   23:10   0.00   55.2    78    8.4     3    11.4   961.8    0.00 
  30   23:20   0.00   57.1    69   11.4   347    12.9   961.8    0.00 
  30   23:30   0.00   58.7    64   10.9   350    12.4   961.8    0.00 
  30   23:40   0.00   59.2    61    9.9   353    10.9   961.7    0.00 
  30   23:50   0.00   59.2    61    9.4   348    10.5   961.6    0.00 
  31    0:00   0.00   59.1    60    8.4   344    10.9   961.6    0.00 
  31    0:10   0.00   58.6    61    9.5   344    12.5   961.5    0.00 
  31    0:20   0.00   58.0    63   10.3   347    12.8   961.3    0.00 
  31    0:30   0.00   57.2    66   11.1   354    13.4   961.2    0.00 
  31    0:40   0.00   55.1    76   10.9     3    13.0   961.2    0.00 
  31    0:50   0.00   53.9    82   10.6    14    13.2   961.2    0.00 
  31    1:00   0.00   52.9    86    9.2    23    11.7   961.2    0.00 
  31    1:10   0.00   53.3    83    9.0    10    11.5   961.1    0.00 
  31    1:20   0.00   54.0    81    6.7    11    10.5   961.1    0.00 
  31    1:30   0.00   54.5    78    6.6     9     9.1   961.1    0.00 
  31    1:40   0.00   54.2    80    7.5    29    10.7   961.2    0.00 
  31    1:50   0.00   52.6    88    9.0    31    10.9   961.1    0.00 
  31    2:00   0.00   51.6    93    8.3    32    10.7   961.1    0.00 
  31    2:10   0.00   51.5    92    7.1    26     9.2   961.2    0.00 
  31    2:20   0.00   52.2    89    4.5    30     5.9   961.2    0.00 
  31    2:30   0.00   52.7    85    3.5    34     4.7   961.2    0.00 
  31    2:40   0.00   52.7    85    2.9    55     4.5   961.1    0.00 
  31    2:50   0.00   52.5    85    1.6   214     3.7   961.0    0.00 
  31    3:00   0.00   52.9    84    3.5   249     7.3   960.9    0.00 
  31    3:10   0.00   51.4    91    4.9   244     7.1   960.8    0.00 
  31    3:20   0.00   51.2    92    6.2   214     8.4   960.7    0.00 
  31    3:30   0.00   51.5    92    4.8   198     6.4   960.8    0.00 
  31    3:40   0.00   51.6    92    4.9   206     5.8   960.8    0.00 
  31    3:50   0.00   51.5    92    4.2   206     5.7   960.8    0.00 
  31    4:00   0.00   51.4    93    4.9   206     6.6   960.8    0.00 
  31    4:10   0.00   51.2    93    5.6   219     6.5   960.8    0.00 
  31    4:20   0.00   50.9    94    7.2   213     8.3   960.7    0.00 
  31    4:30   0.00   51.1    93    7.2   208     8.8   960.8    0.00 
  31    4:40   0.00   51.2    93    6.2   208     7.5   960.8    0.00 
  31    4:50   0.00   51.2    93    7.3   189     8.9   960.9    0.00 
  31    5:00   0.00   51.2    94    7.8   177     9.1   960.9    0.00 
  31    5:10   0.00   51.5    96    7.9   165     9.8   961.0    0.00 
  31    5:20   0.00   51.4    97    7.0   166     8.3   961.1    0.00 
  31    5:30   0.00   51.3    97    7.7   170     8.9   961.1    0.00 
  31    5:40   0.00   51.4    98    8.3   160    10.3   961.1    0.00 
  31    5:50   0.00   51.3    98    9.3   165    10.3   961.2    0.00 
  31    6:00   0.00   51.3    99    8.6   168     9.6   961.3    0.00 
  31    6:10   0.00   51.2    99    8.5   166     9.7   961.3    0.00 
  31    6:20   0.00   51.4    99    8.0   151    10.2   961.4    0.00 
  31    6:30   0.00   51.5    99    6.8   143     9.5   961.5    0.00 
  31    6:40   0.00   51.5    99    8.2   157    10.2   961.5    0.00 
  31    6:50   0.00   51.6    99    9.4   162    12.2   961.7    0.00 
  31    7:00   0.00   51.5    99    7.2   155    10.6   961.8    0.00 
  31    7:10   0.00   51.2    99    6.5   145     8.6   961.9    0.00 

Return to Valley Peak, Santa Cruz Island Reserve graphs page.


Western Regional Climate Center,wrcc@dri.edu